Time;durP1;ratioP1;P1;durP2;ratioP2;P2;SDS_P1;SDS_P2;PMS_P1;PMS_P2;Temp;Humidity;BMP_temperature;BMP_pressure;BME280_temperature;BME280_humidity;BME280_pressure;Samples;Min_cycle;Max_cycle;Signal;HPM_P1;HPM_P2
2021/01/03 00:01:58;;;;;;;32.53;18.90;;;5.90;99.90;;;;;;4900055;29;20627;-66
2021/01/03 00:04:43;;;;;;;32.40;19.37;;;5.90;99.90;;;;;;4910378;28;21156;-67
2021/01/03 00:07:27;;;;;;;32.00;18.80;;;5.90;99.90;;;;;;4914182;28;20615;-67
2021/01/03 00:10:13;;;;;;;29.90;19.40;;;5.90;99.90;;;;;;4921012;28;20631;-66
2021/01/03 00:12:57;;;;;;;32.40;19.80;;;5.90;99.90;;;;;;4918113;28;20702;-66
2021/01/03 00:15:41;;;;;;;31.23;18.70;;;5.90;99.90;;;;;;4916848;28;20603;-66
2021/01/03 00:18:26;;;;;;;37.50;21.13;;;5.90;99.90;;;;;;4912881;29;20612;-66
2021/01/03 00:21:11;;;;;;;33.60;18.60;;;5.90;99.90;;;;;;4907608;28;20619;-67
2021/01/03 00:23:55;;;;;;;36.80;20.27;;;5.80;99.90;;;;;;4914938;29;20781;-67
2021/01/03 00:26:40;;;;;;;35.50;21.13;;;5.80;99.90;;;;;;4910265;28;21196;-67
2021/01/03 00:29:24;;;;;;;35.23;20.67;;;5.80;99.90;;;;;;4907442;28;20647;-67
2021/01/03 00:32:09;;;;;;;37.10;20.73;;;5.90;99.90;;;;;;4912026;28;20675;-67
2021/01/03 00:34:53;;;;;;;35.60;21.60;;;5.80;99.90;;;;;;4906951;29;20632;-67
2021/01/03 00:37:39;;;;;;;34.37;21.00;;;5.90;99.90;;;;;;4920142;28;20607;-67
2021/01/03 00:40:24;;;;;;;36.03;21.57;;;5.90;99.90;;;;;;4907884;28;20707;-66
2021/01/03 00:43:10;;;;;;;41.17;21.90;;;5.90;99.90;;;;;;4911472;28;20657;-66
2021/01/03 00:45:55;;;;;;;35.10;21.70;;;5.90;99.90;;;;;;4908707;29;20689;-66
2021/01/03 00:48:39;;;;;;;38.57;22.30;;;5.70;99.90;;;;;;4911894;28;20607;-66
2021/01/03 00:51:24;;;;;;;34.77;21.27;;;5.80;99.90;;;;;;4915126;28;20592;-66
2021/01/03 00:54:08;;;;;;;38.33;23.57;;;5.80;99.90;;;;;;4904242;28;20840;-65
2021/01/03 00:56:53;;;;;;;38.40;21.90;;;5.90;99.90;;;;;;4912709;28;20640;-66
2021/01/03 00:59:37;;;;;;;36.87;21.27;;;5.80;99.90;;;;;;4935909;28;20599;-66
2021/01/03 01:02:21;;;;;;;36.00;22.27;;;5.80;99.90;;;;;;4898756;29;20706;-68
2021/01/03 01:05:07;;;;;;;38.27;22.50;;;5.80;99.90;;;;;;4911855;28;20678;-66
2021/01/03 01:07:53;;;;;;;34.17;21.20;;;5.80;99.90;;;;;;4915860;28;20588;-66
2021/01/03 01:10:37;;;;;;;36.30;21.30;;;5.80;99.90;;;;;;4907732;28;20655;-66
2021/01/03 01:13:21;;;;;;;39.67;21.20;;;5.80;99.90;;;;;;4918283;28;21000;-67
2021/01/03 01:16:08;;;;;;;39.20;21.97;;;5.80;99.90;;;;;;4901781;28;21193;-67
2021/01/03 01:18:53;;;;;;;37.87;20.90;;;5.80;99.90;;;;;;4913121;28;20619;-66
2021/01/03 01:21:37;;;;;;;36.10;21.90;;;5.80;99.90;;;;;;4912731;29;20615;-66
2021/01/03 01:24:22;;;;;;;37.70;21.80;;;5.90;99.90;;;;;;4911560;28;20739;-67
2021/01/03 01:27:06;;;;;;;33.67;20.60;;;5.90;99.90;;;;;;4922160;28;20618;-67
2021/01/03 01:29:50;;;;;;;35.40;22.10;;;5.90;99.90;;;;;;4928136;28;20635;-66
2021/01/03 01:32:35;;;;;;;38.63;23.20;;;5.90;99.90;;;;;;4908004;28;20683;-66
2021/01/03 01:35:24;;;;;;;37.67;22.23;;;5.90;99.90;;;;;;4905685;28;20585;-67
2021/01/03 01:38:09;;;;;;;36.07;22.00;;;5.80;99.90;;;;;;4923082;28;20600;-66
2021/01/03 01:40:55;;;;;;;34.27;21.40;;;5.80;99.90;;;;;;4917116;28;21033;-66
2021/01/03 01:43:40;;;;;;;35.63;21.67;;;5.70;99.90;;;;;;4922566;28;21254;-67
2021/01/03 01:46:35;;;;;;;37.87;21.70;;;5.70;99.90;;;;;;4914806;28;20642;-66
2021/01/03 01:49:27;;;;;;;37.37;22.60;;;5.70;99.90;;;;;;4919374;28;20643;-66
2021/01/03 01:52:14;;;;;;;40.17;21.60;;;5.70;99.90;;;;;;4914133;28;20666;-68
2021/01/03 01:55:06;;;;;;;36.50;22.13;;;5.70;99.90;;;;;;4920163;28;20636;-66
2021/01/03 01:58:02;;;;;;;37.73;21.23;;;5.70;99.90;;;;;;4917283;28;21179;-66
2021/01/03 02:00:54;;;;;;;35.90;20.60;;;5.60;99.90;;;;;;4904622;28;20673;-66
2021/01/03 02:03:41;;;;;;;35.73;21.63;;;5.60;99.90;;;;;;4919522;28;20857;-68
2021/01/03 02:06:53;;;;;;;34.90;21.63;;;5.60;99.90;;;;;;4907384;28;21238;-65
2021/01/03 02:10:14;;;;;;;37.50;22.50;;;5.50;99.90;;;;;;4901433;28;20711;-66
2021/01/03 02:13:07;;;;;;;38.80;22.00;;;5.50;99.90;;;;;;4910474;28;21052;-70
2021/01/03 02:15:57;;;;;;;35.40;21.73;;;5.50;99.90;;;;;;4914922;28;20638;-66
2021/01/03 02:18:44;;;;;;;38.80;21.90;;;5.50;99.90;;;;;;4915183;28;20966;-66
2021/01/03 02:21:44;;;;;;;38.07;21.90;;;5.40;99.90;;;;;;4911276;28;20603;-67
2021/01/03 02:24:45;;;;;;;37.17;22.60;;;5.40;99.90;;;;;;4918432;28;20647;-66
2021/01/03 02:28:09;;;;;;;34.20;21.17;;;5.40;99.90;;;;;;4914489;28;21189;-66
2021/01/03 02:30:54;;;;;;;36.50;21.57;;;5.30;99.90;;;;;;4923166;28;21248;-66
2021/01/03 02:33:40;;;;;;;37.67;22.23;;;5.30;99.90;;;;;;4907822;28;20674;-66
2021/01/03 02:36:31;;;;;;;39.00;22.37;;;5.20;99.90;;;;;;4901327;28;20587;-71
2021/01/03 02:39:27;;;;;;;38.97;22.10;;;5.20;99.90;;;;;;4902906;28;20620;-66
2021/01/03 02:42:19;;;;;;;33.60;21.80;;;5.10;99.90;;;;;;4903819;28;20671;-66
2021/01/03 02:45:16;;;;;;;36.43;22.23;;;5.10;99.90;;;;;;4910342;28;20950;-66
2021/01/03 02:48:07;;;;;;;38.63;21.40;;;5.10;99.90;;;;;;4912274;29;20955;-66
2021/01/03 02:50:52;;;;;;;36.47;21.60;;;5.00;99.90;;;;;;4912274;28;20749;-65
2021/01/03 02:53:37;;;;;;;38.63;21.33;;;5.10;99.90;;;;;;4905010;28;20654;-66
2021/01/03 02:56:21;;;;;;;40.90;22.87;;;5.00;99.90;;;;;;4932476;28;20635;-67
2021/01/03 02:59:06;;;;;;;40.63;22.17;;;5.00;99.90;;;;;;4907298;28;20598;-66
2021/01/03 03:01:51;;;;;;;42.60;23.47;;;5.00;99.90;;;;;;4943535;28;20627;-66
2021/01/03 03:04:35;;;;;;;37.50;21.57;;;5.00;99.90;;;;;;4957768;28;21127;-66
2021/01/03 03:07:19;;;;;;;39.47;22.90;;;5.00;99.90;;;;;;4913702;28;21287;-66
2021/01/03 03:10:05;;;;;;;39.80;21.67;;;5.10;99.90;;;;;;4914216;28;20630;-67
2021/01/03 03:12:55;;;;;;;38.77;21.83;;;5.00;99.90;;;;;;4913169;28;20647;-65
2021/01/03 03:15:40;;;;;;;35.50;19.80;;;5.00;99.90;;;;;;4912131;28;20595;-66
2021/01/03 03:18:24;;;;;;;37.47;20.43;;;5.00;99.90;;;;;;4916751;28;20678;-66
2021/01/03 03:21:09;;;;;;;35.53;22.40;;;5.00;99.90;;;;;;4913583;28;20643;-66
2021/01/03 03:23:54;;;;;;;36.80;19.23;;;5.00;99.90;;;;;;4916458;28;20651;-67
2021/01/03 03:26:38;;;;;;;35.93;19.37;;;5.10;99.90;;;;;;4918938;28;20599;-66
2021/01/03 03:29:24;;;;;;;35.30;20.33;;;5.10;99.90;;;;;;4919873;28;20686;-66
2021/01/03 03:32:10;;;;;;;34.67;20.50;;;5.10;99.90;;;;;;4913731;28;20671;-66
2021/01/03 03:34:54;;;;;;;39.27;20.70;;;5.10;99.90;;;;;;4991822;22;21075;-68
2021/01/03 03:37:39;;;;;;;36.27;20.37;;;5.10;99.90;;;;;;4984458;28;21243;-68
2021/01/03 03:40:24;;;;;;;32.07;19.33;;;5.20;99.90;;;;;;4980460;28;20612;-69
2021/01/03 03:43:08;;;;;;;34.27;19.10;;;5.20;99.90;;;;;;4978192;28;21310;-68
2021/01/03 03:45:57;;;;;;;33.30;18.63;;;5.30;99.90;;;;;;4979202;28;21191;-68
2021/01/03 03:48:49;;;;;;;32.30;19.50;;;5.20;99.90;;;;;;4983612;28;20791;-69
2021/01/03 03:51:34;;;;;;;35.90;18.73;;;5.30;99.90;;;;;;4958341;28;20773;-68
2021/01/03 03:54:18;;;;;;;31.83;19.30;;;5.30;99.90;;;;;;4990190;28;20797;-68
2021/01/03 03:57:05;;;;;;;36.00;19.13;;;5.30;99.90;;;;;;4986185;28;20713;-68
2021/01/03 03:59:50;;;;;;;31.33;19.07;;;5.30;99.90;;;;;;4999041;28;20613;-68
2021/01/03 04:02:35;;;;;;;35.43;18.90;;;5.30;99.90;;;;;;4982622;28;21281;-68
2021/01/03 04:05:23;;;;;;;30.70;17.47;;;5.30;99.90;;;;;;4994106;28;20616;-68
2021/01/03 04:08:07;;;;;;;34.27;18.77;;;5.30;99.90;;;;;;5002969;28;20616;-68
2021/01/03 04:10:52;;;;;;;27.77;17.13;;;5.30;99.90;;;;;;4976347;28;20652;-68
2021/01/03 04:13:37;;;;;;;35.90;19.20;;;5.40;99.90;;;;;;4985239;28;20652;-68
2021/01/03 04:16:21;;;;;;;28.60;17.57;;;5.30;99.90;;;;;;4983197;28;20601;-69
2021/01/03 04:19:06;;;;;;;32.17;17.80;;;5.40;99.90;;;;;;4973715;28;20584;-69
2021/01/03 04:22:04;;;;;;;31.73;17.10;;;5.40;99.90;;;;;;4990297;28;20677;-68
2021/01/03 04:24:49;;;;;;;32.50;17.37;;;5.40;99.90;;;;;;4986653;28;20644;-68
2021/01/03 04:27:33;;;;;;;29.37;17.03;;;5.30;99.90;;;;;;4986114;28;20590;-68
2021/01/03 04:30:21;;;;;;;31.07;17.77;;;5.30;99.90;;;;;;4996965;28;20640;-68
2021/01/03 04:33:06;;;;;;;29.07;16.40;;;5.30;99.90;;;;;;4985602;28;20651;-68
2021/01/03 04:35:51;;;;;;;30.70;16.97;;;5.30;99.90;;;;;;4980636;28;20660;-69
2021/01/03 04:38:36;;;;;;;31.63;16.60;;;5.30;99.90;;;;;;4973676;28;20593;-68
2021/01/03 04:41:26;;;;;;;31.50;15.87;;;5.30;99.90;;;;;;4989831;28;20696;-68
2021/01/03 04:44:26;;;;;;;27.37;16.67;;;5.30;99.90;;;;;;4992907;28;20657;-68
2021/01/03 04:47:14;;;;;;;30.53;17.07;;;5.40;99.90;;;;;;4991028;28;20620;-69
2021/01/03 04:50:29;;;;;;;32.67;16.93;;;5.40;99.90;;;;;;4988675;28;21262;-68
2021/01/03 04:53:35;;;;;;;25.67;16.10;;;5.40;99.90;;;;;;4982124;28;21206;-68
2021/01/03 04:56:32;;;;;;;26.97;16.40;;;5.40;99.90;;;;;;4982792;28;20581;-68
2021/01/03 04:59:32;;;;;;;27.57;16.53;;;5.40;99.90;;;;;;4992001;28;20529;-68
2021/01/03 05:02:54;;;;;;;28.37;15.00;;;5.40;99.90;;;;;;4981758;28;20717;-68
2021/01/03 05:05:48;;;;;;;19.97;12.70;;;5.40;99.90;;;;;;4977165;28;20701;-68
2021/01/03 05:08:41;;;;;;;24.97;14.27;;;5.40;99.90;;;;;;4984677;28;20585;-68
2021/01/03 05:11:37;;;;;;;26.27;14.57;;;5.40;99.90;;;;;;5003131;28;20619;-68
2021/01/03 05:14:53;;;;;;;22.00;14.33;;;5.40;99.90;;;;;;4960753;28;20652;-68
2021/01/03 05:17:38;;;;;;;22.83;13.73;;;5.40;99.90;;;;;;4981157;28;20609;-68
2021/01/03 05:20:23;;;;;;;21.70;13.40;;;5.40;99.90;;;;;;4986549;28;21085;-68
2021/01/03 05:23:21;;;;;;;20.60;13.60;;;5.40;99.90;;;;;;4973246;28;20665;-68
2021/01/03 05:26:26;;;;;;;21.97;14.37;;;5.40;99.90;;;;;;4983913;28;21162;-68
2021/01/03 05:29:27;;;;;;;20.47;13.33;;;5.40;99.90;;;;;;4972534;28;20617;-68
2021/01/03 05:32:26;;;;;;;21.10;13.27;;;5.40;99.90;;;;;;4985311;28;20604;-68
2021/01/03 05:35:24;;;;;;;18.67;12.80;;;5.50;99.90;;;;;;4964538;28;20644;-68
2021/01/03 05:38:12;;;;;;;21.43;12.97;;;5.50;99.90;;;;;;4987372;28;20617;-68
2021/01/03 05:41:13;;;;;;;18.80;12.30;;;5.40;99.90;;;;;;4990421;28;20608;-68
2021/01/03 05:44:10;;;;;;;20.93;13.40;;;5.40;99.90;;;;;;4992797;28;20742;-68
2021/01/03 05:47:18;;;;;;;21.57;13.23;;;5.40;99.90;;;;;;4989381;28;20728;-68
2021/01/03 05:50:24;;;;;;;17.70;11.50;;;5.40;99.90;;;;;;4991725;28;21063;-68
2021/01/03 05:53:29;;;;;;;19.17;12.30;;;5.40;99.90;;;;;;4990192;28;20719;-68
2021/01/03 05:56:21;;;;;;;17.93;12.50;;;5.40;99.90;;;;;;4986832;28;20584;-68
2021/01/03 05:59:06;;;;;;;15.70;11.80;;;5.40;99.90;;;;;;4992481;28;21087;-68
2021/01/03 06:02:08;;;;;;;19.40;12.20;;;5.40;99.90;;;;;;4989421;28;20802;-68
2021/01/03 06:05:10;;;;;;;20.00;12.53;;;5.40;99.90;;;;;;4971737;28;20664;-69
2021/01/03 06:08:17;;;;;;;18.77;12.33;;;5.40;99.90;;;;;;4984329;28;20636;-68
2021/01/03 06:11:15;;;;;;;17.27;11.57;;;5.40;99.90;;;;;;4978751;28;20667;-68
2021/01/03 06:13:59;;;;;;;15.23;11.20;;;5.40;99.90;;;;;;4985771;28;20808;-68
2021/01/03 06:16:46;;;;;;;15.93;11.20;;;5.30;99.90;;;;;;4988788;28;20783;-68
2021/01/03 06:19:37;;;;;;;15.00;10.67;;;5.30;99.90;;;;;;4989161;28;20756;-68
2021/01/03 06:22:42;;;;;;;16.93;12.30;;;5.30;99.90;;;;;;4984174;28;20641;-68
2021/01/03 06:25:44;;;;;;;12.60;9.57;;;5.30;99.90;;;;;;4999484;28;21213;-68
2021/01/03 06:28:48;;;;;;;15.80;10.80;;;5.30;99.90;;;;;;4991102;28;20652;-68
2021/01/03 06:31:42;;;;;;;14.40;10.60;;;5.30;99.90;;;;;;4981489;28;20640;-68
2021/01/03 06:34:54;;;;;;;17.33;10.57;;;5.30;99.90;;;;;;4996132;28;20700;-67
2021/01/03 06:37:50;;;;;;;15.93;11.17;;;5.30;99.90;;;;;;5000379;28;20609;-68
2021/01/03 06:40:39;;;;;;;13.93;10.00;;;5.30;99.90;;;;;;4995589;28;21491;-67
2021/01/03 06:43:57;;;;;;;13.00;9.63;;;5.30;99.90;;;;;;4987402;28;21158;-68
2021/01/03 06:47:04;;;;;;;15.60;10.70;;;5.30;99.90;;;;;;5018473;28;20620;-68
2021/01/03 06:50:23;;;;;;;15.43;11.40;;;5.30;99.90;;;;;;4995031;28;20675;-68
2021/01/03 06:53:13;;;;;;;15.57;9.80;;;5.30;99.90;;;;;;5005676;28;20656;-67
2021/01/03 06:56:05;;;;;;;15.77;11.63;;;5.40;99.90;;;;;;4975883;28;20648;-67
2021/01/03 06:59:23;;;;;;;15.83;11.33;;;5.40;99.90;;;;;;4971842;28;21312;-68
2021/01/03 07:02:07;;;;;;;15.90;11.07;;;5.40;99.90;;;;;;4978555;28;20620;-67
2021/01/03 07:04:52;;;;;;;17.13;11.70;;;5.30;99.90;;;;;;4958251;28;20683;-67
2021/01/03 07:07:40;;;;;;;16.60;10.90;;;5.30;99.90;;;;;;4973026;28;20976;-67
2021/01/03 07:10:39;;;;;;;16.10;10.93;;;5.30;99.90;;;;;;4987016;28;20624;-68
2021/01/03 07:13:30;;;;;;;15.17;10.93;;;5.40;99.90;;;;;;4991592;28;20668;-68
2021/01/03 07:16:56;;;;;;;17.60;11.40;;;5.40;99.90;;;;;;4986608;28;21222;-68
2021/01/03 07:19:43;;;;;;;15.67;11.30;;;5.40;99.90;;;;;;4989794;28;20797;-68
2021/01/03 07:22:54;;;;;;;17.97;11.77;;;5.40;99.90;;;;;;4982933;28;20643;-67
2021/01/03 07:25:55;;;;;;;16.10;11.43;;;5.40;99.90;;;;;;4987946;28;20712;-68
2021/01/03 07:28:47;;;;;;;16.53;11.60;;;5.40;99.90;;;;;;4982467;28;20574;-67
2021/01/03 07:31:40;;;;;;;14.00;10.60;;;5.40;99.90;;;;;;5006311;28;20684;-71
2021/01/03 07:34:33;;;;;;;18.13;11.53;;;5.40;99.90;;;;;;5016611;28;20660;-67
2021/01/03 07:37:28;;;;;;;16.67;10.27;;;5.40;99.90;;;;;;5004739;28;20589;-68
2021/01/03 07:40:19;;;;;;;14.97;11.20;;;5.30;99.90;;;;;;5011228;28;20579;-68
2021/01/03 07:43:04;;;;;;;16.37;11.27;;;5.30;99.90;;;;;;4981906;28;21185;-68
2021/01/03 07:45:49;;;;;;;17.83;11.33;;;5.30;99.90;;;;;;4983399;28;20963;-68
2021/01/03 07:48:40;;;;;;;15.13;11.17;;;5.30;99.90;;;;;;4987502;28;20669;-67
2021/01/03 07:51:44;;;;;;;14.13;9.87;;;5.30;99.90;;;;;;5003348;28;20632;-68
2021/01/03 07:54:29;;;;;;;13.80;10.37;;;5.30;99.90;;;;;;4993693;28;20652;-68
2021/01/03 07:57:14;;;;;;;15.60;10.23;;;5.30;99.90;;;;;;4987156;28;20631;-68
2021/01/03 08:00:00;;;;;;;12.60;9.33;;;5.30;99.90;;;;;;4990442;28;20670;-68
2021/01/03 08:02:45;;;;;;;12.17;8.73;;;5.30;99.90;;;;;;4979095;28;20648;-68
2021/01/03 08:05:31;;;;;;;11.90;8.93;;;5.30;99.90;;;;;;5000936;28;20616;-70
2021/01/03 08:08:22;;;;;;;12.50;9.60;;;5.30;99.90;;;;;;4985040;28;20584;-68
2021/01/03 08:11:22;;;;;;;13.70;11.60;;;5.30;99.90;;;;;;4988239;28;20667;-68
2021/01/03 08:14:25;;;;;;;12.10;8.97;;;5.30;99.90;;;;;;4981498;28;21281;-67
2021/01/03 08:17:32;;;;;;;12.10;8.37;;;5.30;99.90;;;;;;4982305;28;20608;-68
2021/01/03 08:20:23;;;;;;;14.00;9.10;;;5.30;99.90;;;;;;4980615;28;20688;-69
2021/01/03 08:23:25;;;;;;;12.50;9.37;;;5.40;99.90;;;;;;4976923;28;21274;-68
2021/01/03 08:26:13;;;;;;;14.63;9.40;;;5.40;99.90;;;;;;4984092;28;20681;-67
2021/01/03 08:29:05;;;;;;;14.07;9.57;;;5.30;99.90;;;;;;4982714;28;20621;-69
2021/01/03 08:31:57;;;;;;;12.23;8.80;;;5.30;99.90;;;;;;4985011;28;20668;-68
2021/01/03 08:34:45;;;;;;;12.50;8.57;;;5.30;99.90;;;;;;4977904;28;20657;-69
2021/01/03 08:37:40;;;;;;;13.90;9.40;;;5.30;99.90;;;;;;4993521;28;20632;-69
2021/01/03 08:40:42;;;;;;;11.27;8.60;;;5.30;99.90;;;;;;4979334;28;20975;-69
2021/01/03 08:43:30;;;;;;;11.20;8.20;;;5.30;99.90;;;;;;4976791;28;20651;-69
2021/01/03 08:46:18;;;;;;;11.40;8.07;;;5.30;99.90;;;;;;4981674;28;21097;-69
2021/01/03 08:49:09;;;;;;;10.10;8.30;;;5.30;99.90;;;;;;4984293;28;20617;-69
2021/01/03 08:52:25;;;;;;;11.80;8.03;;;5.30;99.90;;;;;;4980717;28;20745;-69
2021/01/03 08:55:17;;;;;;;11.70;8.23;;;5.20;99.90;;;;;;4975512;28;20819;-69
2021/01/03 08:58:07;;;;;;;11.73;8.07;;;5.20;99.90;;;;;;4980289;28;20718;-69
2021/01/03 09:01:01;;;;;;;11.10;8.17;;;5.20;99.90;;;;;;4983604;28;21050;-69
2021/01/03 09:03:52;;;;;;;7.93;6.77;;;5.30;99.90;;;;;;4976162;28;21230;-69
2021/01/03 09:06:38;;;;;;;8.37;6.50;;;5.40;99.90;;;;;;4980991;28;20605;-70
2021/01/03 09:09:28;;;;;;;9.10;6.70;;;5.40;99.90;;;;;;4980823;28;20659;-69
2021/01/03 09:12:14;;;;;;;9.30;6.70;;;5.50;99.90;;;;;;4986676;28;20715;-69
2021/01/03 09:15:00;;;;;;;9.10;6.80;;;5.50;99.90;;;;;;4980635;28;20646;-69
2021/01/03 09:17:47;;;;;;;7.50;6.10;;;5.40;99.90;;;;;;4978841;28;20648;-69
2021/01/03 09:20:40;;;;;;;7.83;6.00;;;5.50;99.90;;;;;;4986558;28;20600;-69
2021/01/03 09:23:26;;;;;;;7.70;6.53;;;5.40;99.90;;;;;;4990794;28;21319;-69
2021/01/03 09:26:11;;;;;;;7.47;6.10;;;5.50;99.90;;;;;;4982681;28;20653;-70
2021/01/03 09:29:09;;;;;;;7.03;6.07;;;5.50;99.90;;;;;;5002176;28;20632;-69
2021/01/03 09:32:29;;;;;;;6.07;5.47;;;5.50;99.90;;;;;;5019242;28;20656;-69
2021/01/03 09:35:42;;;;;;;7.27;5.77;;;5.50;99.90;;;;;;5008487;23;21072;-61
2021/01/03 09:38:38;;;;;;;6.27;5.43;;;5.50;99.90;;;;;;4988447;28;20588;-62
2021/01/03 09:41:46;;;;;;;8.17;6.27;;;5.60;99.90;;;;;;4982821;28;20624;-62
2021/01/03 09:44:43;;;;;;;7.53;5.60;;;5.50;99.90;;;;;;4975173;28;20663;-63
2021/01/03 09:47:45;;;;;;;7.13;6.17;;;5.60;99.90;;;;;;4974750;28;20652;-63
2021/01/03 09:50:37;;;;;;;8.90;7.40;;;5.70;99.90;;;;;;4973726;28;20687;-62
2021/01/03 09:53:28;;;;;;;6.33;4.90;;;5.80;99.90;;;;;;4978804;28;20632;-62
2021/01/03 09:56:12;;;;;;;6.07;5.00;;;5.80;99.90;;;;;;4987836;28;20612;-61
2021/01/03 09:58:57;;;;;;;5.20;3.97;;;5.90;99.90;;;;;;4985364;28;20584;-62
2021/01/03 10:01:46;;;;;;;5.93;4.60;;;6.00;99.90;;;;;;4973682;28;20577;-63
2021/01/03 10:04:42;;;;;;;5.67;5.13;;;6.10;99.90;;;;;;4969490;28;20779;-63
2021/01/03 10:07:28;;;;;;;7.13;5.83;;;6.20;99.90;;;;;;4989003;28;20620;-62
2021/01/03 10:10:13;;;;;;;6.77;5.73;;;6.30;99.90;;;;;;4986110;28;20695;-64
2021/01/03 10:13:07;;;;;;;6.87;6.17;;;6.30;99.90;;;;;;4964253;28;20684;-64
2021/01/03 10:15:53;;;;;;;6.03;5.43;;;6.40;99.90;;;;;;4986769;28;20708;-64
2021/01/03 10:18:39;;;;;;;6.67;5.60;;;6.50;99.90;;;;;;4990190;28;21222;-63
2021/01/03 10:21:27;;;;;;;7.60;6.03;;;6.60;99.90;;;;;;4984155;28;20756;-64
2021/01/03 10:24:25;;;;;;;8.40;5.60;;;6.60;99.90;;;;;;4984506;28;20667;-62
2021/01/03 10:27:13;;;;;;;6.70;5.70;;;6.70;99.90;;;;;;4970497;28;21171;-63
2021/01/03 10:29:57;;;;;;;6.30;5.70;;;6.70;99.90;;;;;;4985204;28;21317;-62
2021/01/03 10:32:42;;;;;;;5.60;4.90;;;6.80;99.90;;;;;;4980873;28;20636;-63
2021/01/03 10:35:27;;;;;;;6.50;5.73;;;6.80;99.90;;;;;;4970874;28;20715;-63
2021/01/03 10:38:12;;;;;;;5.80;5.20;;;6.90;99.90;;;;;;4972958;28;20692;-63
2021/01/03 10:40:56;;;;;;;5.87;5.27;;;6.90;99.90;;;;;;4968033;28;20640;-63
2021/01/03 10:43:43;;;;;;;6.50;5.07;;;7.00;99.90;;;;;;4987135;28;21107;-62
2021/01/03 10:46:27;;;;;;;5.03;4.47;;;7.00;99.90;;;;;;4977516;28;20584;-63
2021/01/03 10:49:12;;;;;;;4.90;4.43;;;6.90;99.90;;;;;;4986621;28;20596;-63
2021/01/03 10:51:57;;;;;;;6.60;6.00;;;7.00;99.90;;;;;;4987364;28;20636;-63
2021/01/03 10:54:41;;;;;;;7.40;6.63;;;7.00;99.90;;;;;;4986549;28;20664;-62
2021/01/03 10:57:26;;;;;;;5.53;5.00;;;7.00;99.90;;;;;;4981151;28;20588;-63
2021/01/03 11:00:12;;;;;;;3.77;3.47;;;7.10;99.90;;;;;;4984889;28;20640;-63
2021/01/03 11:02:57;;;;;;;3.33;3.03;;;7.10;99.90;;;;;;4971164;28;20715;-62
2021/01/03 11:05:42;;;;;;;3.20;3.00;;;7.10;99.90;;;;;;4988455;28;21166;-64
2021/01/03 11:08:26;;;;;;;3.00;2.80;;;7.10;99.90;;;;;;4987321;28;20601;-62
2021/01/03 11:11:17;;;;;;;2.80;2.60;;;6.90;99.90;;;;;;4970168;28;21247;-63
2021/01/03 11:14:01;;;;;;;2.70;2.50;;;6.90;99.90;;;;;;4988690;28;21514;-63
2021/01/03 11:16:46;;;;;;;3.13;2.83;;;6.80;99.90;;;;;;4990624;28;20934;-62
2021/01/03 11:19:31;;;;;;;3.00;2.80;;;6.90;99.90;;;;;;4978805;28;20645;-63
2021/01/03 11:22:17;;;;;;;2.93;2.57;;;6.70;99.90;;;;;;4967423;28;20594;-62
2021/01/03 11:25:01;;;;;;;3.37;2.90;;;6.70;99.90;;;;;;4985173;28;21285;-63
2021/01/03 11:27:46;;;;;;;2.70;2.50;;;6.70;99.90;;;;;;4985968;28;21279;-63
2021/01/03 11:30:31;;;;;;;3.23;2.13;;;6.70;99.90;;;;;;4964008;28;20748;-62
2021/01/03 11:33:15;;;;;;;3.07;2.77;;;6.70;99.90;;;;;;4989638;28;20589;-63
2021/01/03 11:36:00;;;;;;;3.00;2.70;;;6.70;99.90;;;;;;4962233;28;21264;-62
2021/01/03 11:38:45;;;;;;;2.40;2.20;;;6.80;99.90;;;;;;4957888;28;20644;-63
2021/01/03 11:41:29;;;;;;;2.57;2.37;;;6.70;99.90;;;;;;4972298;28;20727;-62
2021/01/03 11:44:14;;;;;;;2.87;2.40;;;6.70;99.90;;;;;;4965681;28;20807;-62
2021/01/03 11:47:02;;;;;;;2.20;2.00;;;6.70;99.90;;;;;;4969460;28;20721;-62
2021/01/03 11:49:48;;;;;;;2.53;2.13;;;6.70;99.90;;;;;;4979452;28;20620;-64
2021/01/03 11:52:35;;;;;;;2.87;2.17;;;6.70;99.90;;;;;;4988127;28;21035;-63
2021/01/03 11:55:20;;;;;;;3.00;2.70;;;6.70;99.90;;;;;;4989749;28;20648;-64
2021/01/03 11:58:04;;;;;;;3.70;3.40;;;6.70;99.90;;;;;;4969644;28;20711;-65
2021/01/03 12:00:51;;;;;;;4.20;3.80;;;6.70;99.90;;;;;;4974354;28;20600;-68
2021/01/03 12:03:36;;;;;;;4.43;4.00;;;6.70;99.90;;;;;;4993062;28;20755;-63
2021/01/03 12:06:23;;;;;;;3.97;3.67;;;6.60;99.90;;;;;;4985801;28;21319;-62
2021/01/03 12:09:08;;;;;;;3.53;3.20;;;6.70;99.90;;;;;;4971436;28;21250;-63
2021/01/03 12:11:53;;;;;;;4.40;4.00;;;6.70;99.90;;;;;;4981030;28;20651;-63
2021/01/03 12:14:38;;;;;;;3.30;3.00;;;6.80;99.90;;;;;;4993180;28;21229;-63
2021/01/03 12:17:23;;;;;;;3.57;3.27;;;6.80;99.90;;;;;;4980206;28;20679;-63
2021/01/03 12:20:08;;;;;;;4.60;3.50;;;6.80;99.90;;;;;;4967886;28;20952;-64
2021/01/03 12:22:54;;;;;;;3.70;3.40;;;6.80;99.90;;;;;;4980213;28;20743;-64
2021/01/03 12:25:39;;;;;;;3.83;3.30;;;6.80;99.90;;;;;;4975113;28;20631;-62
2021/01/03 12:28:23;;;;;;;3.70;3.40;;;6.80;99.90;;;;;;4980337;28;20785;-63
2021/01/03 12:31:07;;;;;;;4.00;3.00;;;6.80;99.90;;;;;;4987713;28;20704;-63
2021/01/03 12:33:52;;;;;;;2.77;2.57;;;6.70;99.90;;;;;;4963078;28;21603;-63
2021/01/03 12:36:37;;;;;;;2.20;2.00;;;6.70;99.90;;;;;;4975341;28;20738;-62
2021/01/03 12:39:22;;;;;;;2.43;2.10;;;6.60;99.90;;;;;;5520314;23;20888;-62
2021/01/03 12:42:09;;;;;;;1.80;1.70;;;6.50;99.90;;;;;;5027052;28;21185;-63
2021/01/03 12:44:54;;;;;;;2.23;2.00;;;6.40;99.90;;;;;;5029962;28;21209;-63
2021/01/03 12:47:38;;;;;;;2.80;2.23;;;6.30;99.90;;;;;;5030189;28;20637;-63
2021/01/03 12:50:23;;;;;;;2.40;2.20;;;6.40;99.90;;;;;;5022507;28;20787;-63
2021/01/03 12:53:07;;;;;;;2.83;2.53;;;6.40;99.90;;;;;;5031537;28;20621;-64
2021/01/03 12:55:52;;;;;;;2.40;2.20;;;6.40;99.90;;;;;;5002948;23;20759;-77
2021/01/03 12:58:44;;;;;;;2.33;2.13;;;6.40;99.90;;;;;;4985469;28;20675;-72
2021/01/03 13:01:34;;;;;;;2.73;2.43;;;6.30;99.90;;;;;;4991681;28;20687;-70
2021/01/03 13:04:20;;;;;;;1.90;1.80;;;6.30;99.90;;;;;;4981709;28;20675;-70
2021/01/03 13:07:05;;;;;;;2.80;2.10;;;6.20;99.90;;;;;;4984372;28;21027;-74
2021/01/03 13:09:49;;;;;;;3.17;2.33;;;6.20;99.90;;;;;;4982131;28;20675;-74
2021/01/03 13:12:34;;;;;;;6.07;4.50;;;6.20;99.90;;;;;;4985214;28;20778;-71
2021/01/03 13:15:18;;;;;;;9.03;5.70;;;6.20;99.90;;;;;;4987983;28;20990;-72
2021/01/03 13:18:03;;;;;;;6.10;4.80;;;6.20;99.90;;;;;;4996391;28;20679;-74
2021/01/03 13:20:48;;;;;;;3.33;3.03;;;6.20;99.90;;;;;;4979980;28;20627;-71
2021/01/03 13:23:33;;;;;;;3.73;3.10;;;6.20;99.90;;;;;;4994907;28;20756;-74
2021/01/03 13:26:19;;;;;;;3.33;3.03;;;6.20;99.90;;;;;;4997979;28;20620;-74
2021/01/03 13:29:04;;;;;;;3.30;3.00;;;6.20;99.90;;;;;;4985444;28;20624;-72
2021/01/03 13:31:49;;;;;;;4.20;3.57;;;6.20;99.90;;;;;;5001977;28;21075;-74
2021/01/03 13:34:33;;;;;;;3.30;3.00;;;6.20;99.90;;;;;;4983626;28;20672;-73
2021/01/03 13:37:18;;;;;;;3.37;2.97;;;6.20;99.90;;;;;;4991451;28;20620;-73
2021/01/03 13:40:03;;;;;;;3.47;3.00;;;6.20;99.90;;;;;;4997233;28;20640;-74
2021/01/03 13:42:47;;;;;;;3.00;2.80;;;6.20;99.90;;;;;;5002570;28;20652;-74
2021/01/03 13:45:32;;;;;;;3.13;2.93;;;6.20;99.90;;;;;;4982688;28;20661;-73
2021/01/03 13:48:17;;;;;;;3.60;2.80;;;6.20;99.90;;;;;;4995774;28;21107;-73
2021/01/03 13:51:05;;;;;;;4.10;2.97;;;6.20;99.90;;;;;;4992515;28;20743;-73
2021/01/03 13:53:50;;;;;;;3.00;2.70;;;6.30;99.90;;;;;;5003927;28;20745;-73
2021/01/03 13:56:36;;;;;;;4.03;3.10;;;6.30;99.90;;;;;;4980848;28;20664;-72
2021/01/03 13:59:21;;;;;;;3.60;3.27;;;6.30;99.90;;;;;;4979501;28;21021;-73
2021/01/03 14:02:09;;;;;;;3.30;2.83;;;6.20;99.90;;;;;;4996541;28;20628;-75
2021/01/03 14:04:53;;;;;;;3.37;3.07;;;6.20;99.90;;;;;;4986706;28;20652;-75
2021/01/03 14:07:38;;;;;;;4.03;3.63;;;6.10;99.90;;;;;;4990319;28;20699;-73
2021/01/03 14:10:23;;;;;;;4.57;3.60;;;6.00;99.90;;;;;;4997781;28;20643;-73
2021/01/03 14:13:13;;;;;;;3.93;3.53;;;6.00;99.90;;;;;;5001536;28;20699;-71
2021/01/03 14:15:57;;;;;;;5.60;3.40;;;5.80;99.90;;;;;;5000851;28;20653;-74
2021/01/03 14:18:45;;;;;;;4.30;3.63;;;5.80;99.90;;;;;;4993881;28;20779;-74
2021/01/03 14:21:36;;;;;;;4.87;3.80;;;5.80;99.90;;;;;;4978197;28;20691;-74
2021/01/03 14:24:21;;;;;;;4.40;4.00;;;5.80;99.90;;;;;;4984956;28;21055;-73
2021/01/03 14:27:08;;;;;;;4.57;3.93;;;5.80;99.90;;;;;;4998647;28;20864;-76
2021/01/03 14:29:53;;;;;;;4.47;3.90;;;5.70;99.90;;;;;;4984527;28;20708;-74
2021/01/03 14:32:39;;;;;;;5.83;4.97;;;5.80;99.90;;;;;;4979368;28;20685;-76
2021/01/03 14:35:24;;;;;;;4.73;4.23;;;5.50;99.90;;;;;;4982254;28;20775;-73
2021/01/03 14:38:14;;;;;;;5.53;4.13;;;5.70;99.90;;;;;;4986705;28;20642;-73
2021/01/03 14:41:00;;;;;;;5.20;4.70;;;5.70;99.90;;;;;;4982970;28;20639;-73
2021/01/03 14:43:53;;;;;;;5.60;4.37;;;5.70;99.90;;;;;;4996334;28;21142;-74